Time,TemperatureF,DewpointF,PressureIn,WindDirection,WindDirectionDegrees,WindSpeedMPH,WindSpeedGustMPH,Humidity,HourlyPrecipIn,Conditions,Clouds,dailyrainin,SoftwareType,DateUTC
2013-04-27 00:00:00,44.3,40.4,30.33,East,86,0.0,0.0,86,0.00,,---,0.00,VWS V14.01,2013-04-27 04:00:00,
2013-04-27 00:01:00,44.2,40.3,30.33,East,86,0.0,0.0,86,0.00,,---,0.00,VWS V14.01,2013-04-27 04:01:00,
2013-04-27 00:06:00,44.1,40.2,30.33,East,86,0.0,0.0,86,0.00,,---,0.00,VWS V14.01,2013-04-27 04:06:00,
2013-04-27 00:11:00,44.2,40.6,30.33,East,86,0.0,0.0,87,0.00,,---,0.00,VWS V14.01,2013-04-27 04:11:00,
2013-04-27 00:16:00,44.2,40.6,30.33,East,86,0.0,0.0,87,0.00,,---,0.00,VWS V14.01,2013-04-27 04:16:00,
2013-04-27 00:21:00,44.1,40.5,30.33,East,86,0.0,0.0,87,0.00,,---,0.00,VWS V14.01,2013-04-27 04:21:00,
2013-04-27 00:26:00,44.1,40.8,30.33,East,86,0.0,0.0,88,0.00,,---,0.00,VWS V14.01,2013-04-27 04:26:00,
2013-04-27 00:30:00,44.2,40.9,30.33,East,86,0.0,0.0,88,0.00,,---,0.00,VWS V14.01,2013-04-27 04:30:00,
2013-04-27 00:31:00,44.2,40.9,30.33,East,86,0.0,0.0,88,0.00,,---,0.00,VWS V14.01,2013-04-27 04:31:00,
2013-04-27 00:36:00,44.2,40.9,30.33,East,86,0.0,0.0,88,0.00,,---,0.00,VWS V14.01,2013-04-27 04:36:00,
2013-04-27 00:41:00,44.1,40.8,30.33,East,86,0.0,0.0,88,0.00,,---,0.00,VWS V14.01,2013-04-27 04:41:00,
2013-04-27 00:46:00,44.1,40.8,30.32,East,86,0.0,0.0,88,0.00,,---,0.00,VWS V14.01,2013-04-27 04:46:00,
2013-04-27 00:51:00,43.9,40.6,30.32,East,86,0.0,0.0,88,0.00,,---,0.00,VWS V14.01,2013-04-27 04:51:00,
2013-04-27 00:56:00,43.9,40.6,30.32,East,86,0.0,0.0,88,0.00,,---,0.00,VWS V14.01,2013-04-27 04:56:00,
2013-04-27 01:00:00,43.8,40.8,30.33,East,86,0.0,0.0,89,0.00,,---,0.00,VWS V14.01,2013-04-27 05:00:00,
2013-04-27 01:01:00,43.8,40.8,30.33,East,86,0.0,0.0,89,0.00,,---,0.00,VWS V14.01,2013-04-27 05:01:00,
2013-04-27 01:06:00,43.8,40.8,30.33,East,86,0.0,0.0,89,0.00,,---,0.00,VWS V14.01,2013-04-27 05:06:00,
2013-04-27 01:11:00,43.8,40.8,30.33,East,86,0.0,0.0,89,0.00,,---,0.00,VWS V14.01,2013-04-27 05:11:00,
2013-04-27 01:15:00,43.9,40.9,30.32,East,86,0.0,0.0,89,0.00,,---,0.00,VWS V14.01,2013-04-27 05:15:00,
2013-04-27 01:20:00,43.9,40.9,30.32,East,86,0.0,0.0,89,0.00,,---,0.00,VWS V14.01,2013-04-27 05:20:00,
2013-04-27 01:25:00,44.1,41.1,30.32,East,86,0.0,0.0,89,0.00,,---,0.00,VWS V14.01,2013-04-27 05:25:00,
2013-04-27 01:30:00,44.2,41.2,30.32,East,86,0.0,0.0,89,0.00,,---,0.00,VWS V14.01,2013-04-27 05:30:00,
2013-04-27 01:35:00,44.3,41.3,30.32,East,86,0.0,1.0,89,0.00,,---,0.00,VWS V14.01,2013-04-27 05:35:00,
2013-04-27 01:40:00,44.3,41.3,30.32,East,86,0.0,1.0,89,0.00,,---,0.00,VWS V14.01,2013-04-27 05:40:00,
2013-04-27 01:45:00,44.2,41.2,30.32,East,86,0.0,1.0,89,0.00,,---,0.00,VWS V14.01,2013-04-27 05:45:00,
2013-04-27 01:50:00,44.3,41.3,30.32,East,86,1.0,1.0,89,0.00,,---,0.00,VWS V14.01,2013-04-27 05:50:00,
2013-04-27 01:55:00,44.5,41.5,30.32,East,86,0.0,1.0,89,0.00,,---,0.00,VWS V14.01,2013-04-27 05:55:00,
2013-04-27 02:00:00,44.6,41.6,30.32,East,86,0.0,0.0,89,0.00,,---,0.00,VWS V14.01,2013-04-27 06:00:00,
2013-04-27 02:05:00,44.6,41.6,30.32,East,86,0.0,0.0,89,0.00,,---,0.00,VWS V14.01,2013-04-27 06:05:00,
2013-04-27 02:10:00,44.8,41.8,30.32,NE,51,4.0,4.0,89,0.00,,---,0.00,VWS V14.01,2013-04-27 06:10:00,
2013-04-27 02:15:00,44.8,41.8,30.32,NE,34,1.0,4.0,89,0.00,,---,0.00,VWS V14.01,2013-04-27 06:15:00,
2013-04-27 02:20:00,44.6,41.6,30.32,NE,40,1.0,4.0,89,0.00,,---,0.00,VWS V14.01,2013-04-27 06:20:00,
2013-04-27 02:25:00,44.5,41.5,30.32,NE,38,3.0,4.0,89,0.00,,---,0.00,VWS V14.01,2013-04-27 06:25:00,
2013-04-27 02:30:00,44.5,41.2,30.32,NE,38,1.0,2.0,88,0.00,,---,0.00,VWS V14.01,2013-04-27 06:30:00,
2013-04-27 02:35:00,44.3,41.0,30.32,NE,38,0.0,2.0,88,0.00,,---,0.00,VWS V14.01,2013-04-27 06:35:00,
2013-04-27 02:40:00,44.3,41.3,30.32,NE,38,0.0,2.0,89,0.00,,---,0.00,VWS V14.01,2013-04-27 06:40:00,
2013-04-27 02:45:00,44.2,40.9,30.32,NE,38,1.0,2.0,88,0.00,,---,0.00,VWS V14.01,2013-04-27 06:45:00,
2013-04-27 02:50:00,44.1,41.1,30.32,NE,38,0.0,2.0,89,0.00,,---,0.00,VWS V14.01,2013-04-27 06:50:00,
2013-04-27 02:55:00,44.1,40.8,30.32,NE,38,0.0,2.0,88,0.00,,---,0.00,VWS V14.01,2013-04-27 06:55:00,
2013-04-27 03:00:00,44.1,40.8,30.31,NE,38,0.0,2.0,88,0.00,,---,0.00,VWS V14.01,2013-04-27 07:00:00,
2013-04-27 03:01:00,44.1,40.8,30.31,NE,38,0.0,2.0,88,0.00,,---,0.00,VWS V14.01,2013-04-27 07:01:00,
2013-04-27 03:06:00,44.1,40.8,30.31,NE,38,0.0,1.0,88,0.00,,---,0.00,VWS V14.01,2013-04-27 07:06:00,
2013-04-27 03:11:00,44.1,40.8,30.31,NE,38,1.0,1.0,88,0.00,,---,0.00,VWS V14.01,2013-04-27 07:11:00,
2013-04-27 03:16:00,44.1,40.8,30.32,NE,38,0.0,2.0,88,0.00,,---,0.00,VWS V14.01,2013-04-27 07:16:00,
2013-04-27 03:21:00,44.1,40.8,30.32,NE,38,0.0,2.0,88,0.00,,---,0.00,VWS V14.01,2013-04-27 07:21:00,
2013-04-27 03:26:00,44.1,40.8,30.32,NE,38,2.0,2.0,88,0.00,,---,0.00,VWS V14.01,2013-04-27 07:26:00,
2013-04-27 03:30:00,44.1,40.8,30.31,NE,38,0.0,2.0,88,0.00,,---,0.00,VWS V14.01,2013-04-27 07:30:00,
2013-04-27 03:31:00,44.1,40.8,30.31,NE,38,2.0,2.0,88,0.00,,---,0.00,VWS V14.01,2013-04-27 07:31:00,
2013-04-27 03:36:00,43.9,40.3,30.31,NE,38,1.0,2.0,87,0.00,,---,0.00,VWS V14.01,2013-04-27 07:36:00,
2013-04-27 03:41:00,43.9,40.6,30.31,NE,38,0.0,2.0,88,0.00,,---,0.00,VWS V14.01,2013-04-27 07:41:00,
2013-04-27 03:46:00,44.1,40.8,30.31,NE,38,0.0,2.0,88,0.00,,---,0.00,VWS V14.01,2013-04-27 07:46:00,
2013-04-27 03:51:00,44.1,40.8,30.31,NE,38,1.0,2.0,88,0.00,,---,0.00,VWS V14.01,2013-04-27 07:51:00,
2013-04-27 03:56:00,44.1,40.8,30.31,NE,38,0.0,2.0,88,0.00,,---,0.00,VWS V14.01,2013-04-27 07:56:00,
2013-04-27 04:00:00,44.1,40.8,30.31,NE,38,0.0,2.0,88,0.00,,---,0.00,VWS V14.01,2013-04-27 08:00:00,
2013-04-27 04:01:00,44.1,40.8,30.31,NE,38,0.0,0.0,88,0.00,,---,0.00,VWS V14.01,2013-04-27 08:01:00,
2013-04-27 04:06:00,44.1,40.8,30.31,NE,38,0.0,0.0,88,0.00,,---,0.00,VWS V14.01,2013-04-27 08:06:00,
2013-04-27 04:11:00,43.9,40.6,30.31,NE,38,0.0,0.0,88,0.00,,---,0.00,VWS V14.01,2013-04-27 08:11:00,
2013-04-27 04:16:00,43.9,40.6,30.30,NE,38,0.0,0.0,88,0.00,,---,0.00,VWS V14.01,2013-04-27 08:16:00,
2013-04-27 04:21:00,43.9,40.6,30.30,NE,38,1.0,2.0,88,0.00,,---,0.00,VWS V14.01,2013-04-27 08:21:00,
2013-04-27 04:26:00,43.9,40.6,30.30,NE,38,0.0,2.0,88,0.00,,---,0.00,VWS V14.01,2013-04-27 08:26:00,
2013-04-27 04:30:00,43.8,40.5,30.30,NE,38,1.0,2.0,88,0.00,,---,0.00,VWS V14.01,2013-04-27 08:30:00,
2013-04-27 04:31:00,43.8,40.5,30.30,NE,38,0.0,1.0,88,0.00,,---,0.00,VWS V14.01,2013-04-27 08:31:00,
2013-04-27 04:36:00,43.8,40.5,30.30,NE,38,0.0,1.0,88,0.00,,---,0.00,VWS V14.01,2013-04-27 08:36:00,
2013-04-27 04:41:00,43.9,40.6,30.30,NE,38,0.0,2.0,88,0.00,,---,0.00,VWS V14.01,2013-04-27 08:41:00,
2013-04-27 04:46:00,43.8,40.8,30.30,NE,38,0.0,2.0,89,0.00,,---,0.00,VWS V14.01,2013-04-27 08:46:00,
2013-04-27 04:51:00,43.8,40.8,30.30,NE,38,0.0,2.0,89,0.00,,---,0.00,VWS V14.01,2013-04-27 08:51:00,
2013-04-27 04:56:00,43.5,40.5,30.30,NE,38,0.0,2.0,89,0.00,,---,0.00,VWS V14.01,2013-04-27 08:56:00,
2013-04-27 05:00:00,43.5,40.5,30.30,NE,38,0.0,2.0,89,0.00,,---,0.00,VWS V14.01,2013-04-27 09:00:00,
2013-04-27 05:01:00,43.5,40.5,30.30,NE,38,0.0,0.0,89,0.00,,---,0.00,VWS V14.01,2013-04-27 09:01:00,
2013-04-27 05:05:00,43.3,40.6,30.30,NE,38,0.0,0.0,90,0.00,,---,0.00,VWS V14.01,2013-04-27 09:05:00,
2013-04-27 05:10:00,43.2,40.5,30.30,NE,38,0.0,0.0,90,0.00,,---,0.00,VWS V14.01,2013-04-27 09:10:00,
2013-04-27 05:15:00,43.3,40.8,30.29,NE,38,0.0,1.0,91,0.00,,---,0.00,VWS V14.01,2013-04-27 09:15:00,
2013-04-27 05:20:00,43.3,40.8,30.29,NE,38,0.0,1.0,91,0.00,,---,0.00,VWS V14.01,2013-04-27 09:20:00,
2013-04-27 05:25:00,43.3,40.8,30.29,NE,38,0.0,1.0,91,0.00,,---,0.00,VWS V14.01,2013-04-27 09:25:00,
2013-04-27 05:30:00,43.3,40.8,30.29,NE,38,1.0,2.0,91,0.00,,---,0.00,VWS V14.01,2013-04-27 09:30:00,
2013-04-27 05:35:00,43.2,41.0,30.29,NE,38,1.0,2.0,92,0.00,,---,0.00,VWS V14.01,2013-04-27 09:35:00,
2013-04-27 05:40:00,43.2,41.0,30.29,NE,38,0.0,2.0,92,0.00,,---,0.00,VWS V14.01,2013-04-27 09:40:00,
2013-04-27 05:45:00,43.1,40.9,30.30,NE,38,0.0,2.0,92,0.00,,---,0.00,VWS V14.01,2013-04-27 09:45:00,
2013-04-27 05:50:00,42.8,40.6,30.30,NE,38,0.0,2.0,92,0.00,,---,0.00,VWS V14.01,2013-04-27 09:50:00,
2013-04-27 05:55:00,42.6,40.4,30.30,NE,38,0.0,2.0,92,0.00,,---,0.00,VWS V14.01,2013-04-27 09:55:00,
2013-04-27 06:00:00,42.6,40.4,30.30,NE,38,0.0,1.0,92,0.00,,---,0.00,VWS V14.01,2013-04-27 10:00:00,
2013-04-27 06:05:00,42.8,40.9,30.30,NE,38,1.0,2.0,93,0.00,,---,0.00,VWS V14.01,2013-04-27 10:05:00,
2013-04-27 06:10:00,42.8,40.9,30.30,NE,38,0.0,2.0,93,0.00,,---,0.00,VWS V14.01,2013-04-27 10:10:00,
2013-04-27 06:15:00,42.8,40.9,30.30,NE,38,0.0,2.0,93,0.00,,---,0.00,VWS V14.01,2013-04-27 10:15:00,
2013-04-27 06:20:00,42.9,40.7,30.30,NE,38,1.0,2.0,92,0.00,,---,0.00,VWS V14.01,2013-04-27 10:20:00,
2013-04-27 06:25:00,42.9,40.7,30.30,NE,38,1.0,2.0,92,0.00,,---,0.00,VWS V14.01,2013-04-27 10:25:00,
2013-04-27 06:30:00,42.9,40.7,30.31,NE,38,0.0,0.0,92,0.00,,---,0.00,VWS V14.01,2013-04-27 10:30:00,
2013-04-27 06:35:00,43.2,41.0,30.31,NE,38,0.0,0.0,92,0.00,,---,0.00,VWS V14.01,2013-04-27 10:35:00,
2013-04-27 06:40:00,43.6,41.4,30.31,NE,38,0.0,0.0,92,0.00,,---,0.00,VWS V14.01,2013-04-27 10:40:00,
2013-04-27 06:45:00,44.1,41.9,30.31,NE,38,0.0,0.0,92,0.00,,---,0.00,VWS V14.01,2013-04-27 10:45:00,
2013-04-27 06:50:00,44.9,42.4,30.31,NE,38,0.0,0.0,91,0.00,,---,0.00,VWS V14.01,2013-04-27 10:50:00,
2013-04-27 06:55:00,45.5,42.7,30.31,NE,38,0.0,0.0,90,0.00,,---,0.00,VWS V14.01,2013-04-27 10:55:00,
2013-04-27 07:00:00,45.8,42.8,30.31,NE,38,0.0,0.0,89,0.00,,---,0.00,VWS V14.01,2013-04-27 11:00:00,
2013-04-27 07:05:00,46.2,43.1,30.31,NE,38,0.0,0.0,89,0.00,,---,0.00,VWS V14.01,2013-04-27 11:05:00,
2013-04-27 07:10:00,46.8,43.1,30.31,NE,38,0.0,0.0,87,0.00,,---,0.00,VWS V14.01,2013-04-27 11:10:00,
2013-04-27 07:15:00,47.4,42.8,30.31,NE,38,0.0,0.0,84,0.00,,---,0.00,VWS V14.01,2013-04-27 11:15:00,
2013-04-27 07:20:00,47.1,41.9,30.31,NE,38,0.0,0.0,82,0.00,,---,0.00,VWS V14.01,2013-04-27 11:20:00,
2013-04-27 07:25:00,46.8,41.9,30.31,NE,38,0.0,0.0,83,0.00,,---,0.00,VWS V14.01,2013-04-27 11:25:00,
2013-04-27 07:30:00,46.5,41.6,30.31,NE,38,0.0,1.0,83,0.00,,---,0.00,VWS V14.01,2013-04-27 11:30:00,
2013-04-27 07:35:00,46.2,41.6,30.31,NE,38,0.0,1.0,84,0.00,,---,0.00,VWS V14.01,2013-04-27 11:35:00,
2013-04-27 07:40:00,46.4,41.8,30.31,NE,38,0.0,1.0,84,0.00,,---,0.00,VWS V14.01,2013-04-27 11:40:00,
2013-04-27 07:45:00,46.5,41.6,30.31,NE,38,0.0,1.0,83,0.00,,---,0.00,VWS V14.01,2013-04-27 11:45:00,
2013-04-27 07:50:00,46.8,41.6,30.31,NE,38,0.0,1.0,82,0.00,,---,0.00,VWS V14.01,2013-04-27 11:50:00,
2013-04-27 07:55:00,47.1,41.6,30.31,NE,38,0.0,1.0,81,0.00,,---,0.00,VWS V14.01,2013-04-27 11:55:00,
2013-04-27 08:00:00,47.1,41.6,30.31,NE,38,0.0,0.0,81,0.00,,---,0.00,VWS V14.01,2013-04-27 12:00:00,
2013-04-27 08:05:00,47.3,41.8,30.31,NE,38,0.0,0.0,81,0.00,,---,0.00,VWS V14.01,2013-04-27 12:05:00,
2013-04-27 08:10:00,47.3,41.5,30.31,NE,38,0.0,0.0,80,0.00,,---,0.00,VWS V14.01,2013-04-27 12:10:00,
2013-04-27 08:15:00,47.6,41.4,30.31,NE,38,0.0,0.0,79,0.00,,---,0.00,VWS V14.01,2013-04-27 12:15:00,
2013-04-27 08:20:00,48.0,40.8,30.31,NE,38,0.0,0.0,76,0.00,,---,0.00,VWS V14.01,2013-04-27 12:20:00,
2013-04-27 08:25:00,48.6,40.3,30.31,NE,38,0.0,0.0,73,0.00,,---,0.00,VWS V14.01,2013-04-27 12:25:00,
2013-04-27 08:30:00,49.2,40.9,30.31,NE,38,2.0,3.0,73,0.00,,---,0.00,VWS V14.01,2013-04-27 12:30:00,
2013-04-27 08:35:00,49.5,41.6,30.31,NE,38,0.0,3.0,74,0.00,,---,0.00,VWS V14.01,2013-04-27 12:35:00,
2013-04-27 08:40:00,51.1,42.0,30.31,NE,38,0.0,3.0,71,0.00,,---,0.00,VWS V14.01,2013-04-27 12:40:00,
2013-04-27 08:45:00,52.9,41.1,30.32,NE,43,1.0,3.0,64,0.00,,---,0.00,VWS V14.01,2013-04-27 12:45:00,
2013-04-27 08:50:00,53.2,38.8,30.32,NE,43,0.0,3.0,58,0.00,,---,0.00,VWS V14.01,2013-04-27 12:50:00,
2013-04-27 08:55:00,53.3,38.9,30.32,NE,43,0.0,3.0,58,0.00,,---,0.00,VWS V14.01,2013-04-27 12:55:00,
2013-04-27 09:00:00,54.4,38.1,30.32,NE,43,0.0,0.0,54,0.00,,---,0.00,VWS V14.01,2013-04-27 13:00:00,
2013-04-27 09:05:00,55.0,38.2,30.32,NE,43,1.0,2.0,53,0.00,,---,0.00,VWS V14.01,2013-04-27 13:05:00,
2013-04-27 09:10:00,54.7,37.9,30.32,NE,43,0.0,2.0,53,0.00,,---,0.00,VWS V14.01,2013-04-27 13:10:00,
2013-04-27 09:15:00,54.8,37.5,30.32,NE,43,1.0,2.0,52,0.00,,---,0.00,VWS V14.01,2013-04-27 13:15:00,
2013-04-27 09:20:00,54.5,38.2,30.32,NE,46,1.0,2.0,54,0.00,,---,0.00,VWS V14.01,2013-04-27 13:20:00,
2013-04-27 09:25:00,54.5,38.7,30.32,SSE,162,0.0,4.0,55,0.00,,---,0.00,VWS V14.01,2013-04-27 13:25:00,
2013-04-27 09:30:00,55.0,38.2,30.32,South,169,2.0,2.0,53,0.00,,---,0.00,VWS V14.01,2013-04-27 13:30:00,
2013-04-27 09:35:00,54.5,38.7,30.32,ESE,117,0.0,4.0,55,0.00,,---,0.00,VWS V14.01,2013-04-27 13:35:00,
2013-04-27 09:40:00,55.4,39.0,30.32,ESE,117,0.0,4.0,54,0.00,,---,0.00,VWS V14.01,2013-04-27 13:40:00,
2013-04-27 09:48:00,55.6,40.2,30.32,South,173,0.0,4.0,56,0.00,,---,0.00,VWS V14.01,2013-04-27 13:48:00,
2013-04-27 09:53:00,54.4,37.6,30.32,SSE,147,1.0,5.0,53,0.00,,---,0.00,VWS V14.01,2013-04-27 13:53:00,
2013-04-27 09:58:00,53.5,39.5,30.32,SE,140,0.0,6.0,59,0.00,,---,0.00,VWS V14.01,2013-04-27 13:58:00,
2013-04-27 10:00:00,53.6,40.1,30.32,SE,145,0.0,6.0,60,0.00,,---,0.00,VWS V14.01,2013-04-27 14:00:00,
2013-04-27 10:03:00,54.2,40.2,30.32,SSE,164,0.0,4.0,59,0.00,,---,0.00,VWS V14.01,2013-04-27 14:03:00,
2013-04-27 10:08:00,53.9,39.5,30.32,SSE,163,6.0,6.0,58,0.00,,---,0.00,VWS V14.01,2013-04-27 14:08:00,
2013-04-27 10:13:00,53.2,38.4,30.32,SE,129,1.0,6.0,57,0.00,,---,0.00,VWS V14.01,2013-04-27 14:13:00,
2013-04-27 10:18:00,53.8,39.4,30.32,SW,217,2.0,6.0,58,0.00,,---,0.00,VWS V14.01,2013-04-27 14:18:00,
2013-04-27 10:23:00,54.2,38.9,30.32,SE,130,0.0,6.0,56,0.00,,---,0.00,VWS V14.01,2013-04-27 14:23:00,
2013-04-27 10:28:00,53.9,37.7,30.32,South,181,5.0,6.0,54,0.00,,---,0.00,VWS V14.01,2013-04-27 14:28:00,
2013-04-27 10:30:00,53.3,37.1,30.32,ESE,112,6.0,6.0,54,0.00,,---,0.00,VWS V14.01,2013-04-27 14:30:00,
2013-04-27 10:33:00,53.1,37.8,30.32,SSE,154,2.0,6.0,56,0.00,,---,0.00,VWS V14.01,2013-04-27 14:33:00,
2013-04-27 10:38:00,52.3,35.7,30.32,South,175,3.0,7.0,53,0.00,,---,0.00,VWS V14.01,2013-04-27 14:38:00,
2013-04-27 10:43:00,52.0,38.1,30.32,South,171,2.0,7.0,59,0.00,,---,0.00,VWS V14.01,2013-04-27 14:43:00,
2013-04-27 10:48:00,52.5,39.5,30.32,South,187,1.0,7.0,61,0.00,,---,0.00,VWS V14.01,2013-04-27 14:48:00,
2013-04-27 10:53:00,53.1,40.0,30.32,SE,146,5.0,7.0,61,0.00,,---,0.00,VWS V14.01,2013-04-27 14:53:00,
2013-04-27 10:58:00,52.8,38.0,30.32,SE,140,5.0,7.0,57,0.00,,---,0.00,VWS V14.01,2013-04-27 14:58:00,
2013-04-27 11:00:00,52.3,37.1,30.32,SSW,198,3.0,7.0,56,0.00,,---,0.00,VWS V14.01,2013-04-27 15:00:00,
2013-04-27 11:03:00,52.3,38.8,30.32,SSE,149,3.0,5.0,60,0.00,,---,0.00,VWS V14.01,2013-04-27 15:03:00,
2013-04-27 11:08:00,53.1,38.3,30.32,South,190,4.0,5.0,57,0.00,,---,0.00,VWS V14.01,2013-04-27 15:08:00,
2013-04-27 11:13:00,53.3,38.0,30.32,South,175,1.0,8.0,56,0.00,,---,0.00,VWS V14.01,2013-04-27 15:13:00,
2013-04-27 11:18:00,53.6,33.9,30.32,South,179,3.0,9.0,47,0.00,,---,0.00,VWS V14.01,2013-04-27 15:18:00,
2013-04-27 11:23:00,53.3,33.1,30.32,SSE,147,6.0,9.0,46,0.00,,---,0.00,VWS V14.01,2013-04-27 15:23:00,
2013-04-27 11:28:00,53.2,34.0,30.32,SW,225,2.0,9.0,48,0.00,,---,0.00,VWS V14.01,2013-04-27 15:28:00,
2013-04-27 11:30:00,53.3,33.1,30.32,ESE,111,3.0,9.0,46,0.00,,---,0.00,VWS V14.01,2013-04-27 15:30:00,
2013-04-27 11:33:00,53.6,33.3,30.32,SE,130,2.0,5.0,46,0.00,,---,0.00,VWS V14.01,2013-04-27 15:33:00,
2013-04-27 11:38:00,53.5,32.7,30.32,South,172,2.0,8.0,45,0.00,,---,0.00,VWS V14.01,2013-04-27 15:38:00,
2013-04-27 11:43:00,52.9,33.8,30.32,South,170,4.0,8.0,48,0.00,,---,0.00,VWS V14.01,2013-04-27 15:43:00,
2013-04-27 11:48:00,53.5,35.3,30.32,South,190,3.0,8.0,50,0.00,,---,0.00,VWS V14.01,2013-04-27 15:48:00,
2013-04-27 11:53:00,53.5,34.3,30.32,South,182,2.0,8.0,48,0.00,,---,0.00,VWS V14.01,2013-04-27 15:53:00,
2013-04-27 11:58:00,54.1,35.9,30.32,SSE,153,3.0,8.0,50,0.00,,---,0.00,VWS V14.01,2013-04-27 15:58:00,
2013-04-27 12:00:00,54.2,33.9,30.31,South,175,6.0,9.0,46,0.00,,---,0.00,VWS V14.01,2013-04-27 16:00:00,
2013-04-27 12:03:00,54.1,34.3,30.31,SSE,163,1.0,9.0,47,0.00,,---,0.00,VWS V14.01,2013-04-27 16:03:00,
2013-04-27 12:08:00,53.8,33.0,30.31,SSE,151,3.0,10.0,45,0.00,,---,0.00,VWS V14.01,2013-04-27 16:08:00,
2013-04-27 12:13:00,53.2,33.5,30.31,South,176,3.0,11.0,47,0.00,,---,0.00,VWS V14.01,2013-04-27 16:13:00,
2013-04-27 12:18:00,53.6,34.4,30.31,ESE,121,0.0,11.0,48,0.00,,---,0.00,VWS V14.01,2013-04-27 16:18:00,
2013-04-27 12:23:00,54.7,33.8,30.31,ESE,106,3.0,11.0,45,0.00,,---,0.00,VWS V14.01,2013-04-27 16:23:00,
2013-04-27 12:28:00,54.7,32.1,30.31,South,169,6.0,11.0,42,0.00,,---,0.00,VWS V14.01,2013-04-27 16:28:00,
2013-04-27 12:30:00,54.4,31.8,30.30,SE,143,2.0,11.0,42,0.00,,---,0.00,VWS V14.01,2013-04-27 16:30:00,
2013-04-27 12:33:00,54.5,31.3,30.30,ESE,122,5.0,8.0,41,0.00,,---,0.00,VWS V14.01,2013-04-27 16:33:00,
2013-04-27 12:38:00,54.1,31.5,30.30,SSE,162,6.0,9.0,42,0.00,,---,0.00,VWS V14.01,2013-04-27 16:38:00,
2013-04-27 12:43:00,54.1,30.9,30.30,SSE,155,5.0,10.0,41,0.00,,---,0.00,VWS V14.01,2013-04-27 16:43:00,
2013-04-27 12:48:00,54.5,30.1,30.30,SSE,157,2.0,10.0,39,0.00,,---,0.00,VWS V14.01,2013-04-27 16:48:00,
2013-04-27 12:53:00,54.4,29.3,30.30,South,172,1.0,10.0,38,0.00,,---,0.00,VWS V14.01,2013-04-27 16:53:00,
2013-04-27 12:58:00,54.8,29.0,30.30,South,180,4.0,10.0,37,0.00,,---,0.00,VWS V14.01,2013-04-27 16:58:00,
2013-04-27 13:00:00,54.7,29.6,30.29,South,184,2.0,10.0,38,0.00,,---,0.00,VWS V14.01,2013-04-27 17:00:00,
2013-04-27 13:03:00,54.8,30.3,30.29,South,186,1.0,6.0,39,0.00,,---,0.00,VWS V14.01,2013-04-27 17:03:00,
2013-04-27 13:08:00,55.4,30.9,30.29,SE,132,2.0,9.0,39,0.00,,---,0.00,VWS V14.01,2013-04-27 17:08:00,
2013-04-27 13:13:00,55.6,31.1,30.29,SSE,160,4.0,11.0,39,0.00,,---,0.00,VWS V14.01,2013-04-27 17:13:00,
2013-04-27 13:18:00,55.7,32.4,30.29,SE,129,1.0,11.0,41,0.00,,---,0.00,VWS V14.01,2013-04-27 17:18:00,
2013-04-27 13:23:00,55.6,29.8,30.29,South,180,3.0,12.0,37,0.00,,---,0.00,VWS V14.01,2013-04-27 17:23:00,
2013-04-27 13:28:00,54.8,29.7,30.29,South,176,4.0,12.0,38,0.00,,---,0.00,VWS V14.01,2013-04-27 17:28:00,
2013-04-27 13:30:00,54.7,30.2,30.28,South,169,4.0,13.0,39,0.00,,---,0.00,VWS V14.01,2013-04-27 17:30:00,
2013-04-27 13:33:00,54.5,30.1,30.28,SSE,166,3.0,11.0,39,0.00,,---,0.00,VWS V14.01,2013-04-27 17:33:00,
2013-04-27 13:38:00,55.3,30.8,30.28,SSE,150,3.0,11.0,39,0.00,,---,0.00,VWS V14.01,2013-04-27 17:38:00,
2013-04-27 13:43:00,54.8,27.7,30.28,SE,127,3.0,11.0,35,0.00,,---,0.00,VWS V14.01,2013-04-27 17:43:00,
2013-04-27 13:47:00,54.8,28.4,30.28,SSE,151,9.0,11.0,36,0.00,,---,0.00,VWS V14.01,2013-04-27 17:47:00,
2013-04-27 13:52:00,54.8,29.7,30.28,South,171,5.0,11.0,38,0.00,,---,0.00,VWS V14.01,2013-04-27 17:52:00,
2013-04-27 13:57:00,55.4,26.0,30.28,SSE,167,4.0,11.0,32,0.00,,---,0.00,VWS V14.01,2013-04-27 17:57:00,
2013-04-27 14:00:00,55.4,27.5,30.27,SE,138,7.0,11.0,34,0.00,,---,0.00,VWS V14.01,2013-04-27 18:00:00,
2013-04-27 14:02:00,55.9,28.7,30.27,SE,128,5.0,7.0,35,0.00,,---,0.00,VWS V14.01,2013-04-27 18:02:00,
2013-04-27 14:07:00,56.5,27.8,30.27,SE,129,5.0,10.0,33,0.00,,---,0.00,VWS V14.01,2013-04-27 18:07:00,
2013-04-27 14:12:00,56.6,26.3,30.27,SSE,149,1.0,10.0,31,0.00,,---,0.00,VWS V14.01,2013-04-27 18:12:00,
2013-04-27 14:17:00,56.0,25.8,30.27,SE,136,2.0,10.0,31,0.00,,---,0.00,VWS V14.01,2013-04-27 18:17:00,
2013-04-27 14:22:00,56.3,30.4,30.27,ESE,119,2.0,10.0,37,0.00,,---,0.00,VWS V14.01,2013-04-27 18:22:00,
2013-04-27 14:27:00,56.0,28.8,30.27,SSE,159,2.0,10.0,35,0.00,,---,0.00,VWS V14.01,2013-04-27 18:27:00,
2013-04-27 14:30:00,56.2,29.6,30.26,SE,130,2.0,10.0,36,0.00,,---,0.00,VWS V14.01,2013-04-27 18:30:00,
2013-04-27 14:32:00,56.2,28.9,30.26,SSE,154,1.0,7.0,35,0.00,,---,0.00,VWS V14.01,2013-04-27 18:32:00,
2013-04-27 14:37:00,56.2,27.5,30.26,SE,128,9.0,11.0,33,0.00,,---,0.00,VWS V14.01,2013-04-27 18:37:00,
2013-04-27 14:42:00,55.9,30.0,30.26,SE,140,11.0,12.0,37,0.00,,---,0.00,VWS V14.01,2013-04-27 18:42:00,
2013-04-27 14:47:00,54.8,29.7,30.26,SSE,156,2.0,13.0,38,0.00,,---,0.00,VWS V14.01,2013-04-27 18:47:00,
2013-04-27 14:52:00,55.1,30.6,30.26,ESE,109,5.0,13.0,39,0.00,,---,0.00,VWS V14.01,2013-04-27 18:52:00,
2013-04-27 14:57:00,55.1,28.0,30.26,SSE,157,5.0,13.0,35,0.00,,---,0.00,VWS V14.01,2013-04-27 18:57:00,
2013-04-27 15:00:00,55.1,27.3,30.26,South,169,3.0,13.0,34,0.00,,---,0.00,VWS V14.01,2013-04-27 19:00:00,
2013-04-27 15:02:00,55.4,28.2,30.26,SSE,150,2.0,7.0,35,0.00,,---,0.00,VWS V14.01,2013-04-27 19:02:00,
2013-04-27 15:07:00,55.9,28.7,30.26,SE,132,3.0,7.0,35,0.00,,---,0.00,VWS V14.01,2013-04-27 19:07:00,
2013-04-27 15:12:00,56.2,25.2,30.26,SSE,148,4.0,7.0,30,0.00,,---,0.00,VWS V14.01,2013-04-27 19:12:00,
2013-04-27 15:17:00,55.9,24.9,30.25,ESE,113,5.0,9.0,30,0.00,,---,0.00,VWS V14.01,2013-04-27 19:17:00,
2013-04-27 15:22:00,55.6,25.5,30.25,ESE,105,4.0,9.0,31,0.00,,---,0.00,VWS V14.01,2013-04-27 19:22:00,
2013-04-27 15:27:00,55.6,27.0,30.25,ESE,117,4.0,9.0,33,0.00,,---,0.00,VWS V14.01,2013-04-27 19:27:00,
2013-04-27 15:30:00,55.4,26.8,30.25,SE,140,4.0,9.0,33,0.00,,---,0.00,VWS V14.01,2013-04-27 19:30:00,
2013-04-27 15:32:00,55.1,27.3,30.25,SE,129,4.0,10.0,34,0.00,,---,0.00,VWS V14.01,2013-04-27 19:32:00,
2013-04-27 15:37:00,55.3,28.8,30.25,ESE,118,5.0,10.0,36,0.00,,---,0.00,VWS V14.01,2013-04-27 19:37:00,
2013-04-27 15:42:00,55.4,29.6,30.25,ESE,112,3.0,10.0,37,0.00,,---,0.00,VWS V14.01,2013-04-27 19:42:00,
2013-04-27 15:47:00,55.4,26.8,30.24,SSE,158,2.0,11.0,33,0.00,,---,0.00,VWS V14.01,2013-04-27 19:47:00,
2013-04-27 15:52:00,55.7,27.1,30.24,SE,134,2.0,11.0,33,0.00,,---,0.00,VWS V14.01,2013-04-27 19:52:00,
2013-04-27 15:57:00,55.7,25.5,30.24,SE,142,1.0,11.0,31,0.00,,---,0.00,VWS V14.01,2013-04-27 19:57:00,
2013-04-27 16:00:00,55.9,25.7,30.23,SE,125,2.0,11.0,31,0.00,,---,0.00,VWS V14.01,2013-04-27 20:00:00,
2013-04-27 16:02:00,56.0,25.8,30.23,SE,136,3.0,8.0,31,0.00,,---,0.00,VWS V14.01,2013-04-27 20:02:00,
2013-04-27 16:07:00,56.5,27.8,30.23,SSE,148,5.0,8.0,33,0.00,,---,0.00,VWS V14.01,2013-04-27 20:07:00,
2013-04-27 16:12:00,55.9,25.7,30.23,SE,134,6.0,12.0,31,0.00,,---,0.00,VWS V14.01,2013-04-27 20:12:00,
2013-04-27 16:17:00,55.4,28.2,30.23,South,178,4.0,13.0,35,0.00,,---,0.00,VWS V14.01,2013-04-27 20:17:00,
2013-04-27 16:22:00,54.2,27.9,30.23,SE,144,4.0,15.0,36,0.00,,---,0.00,VWS V14.01,2013-04-27 20:22:00,
2013-04-27 16:27:00,54.1,27.1,30.23,South,184,6.0,15.0,35,0.00,,---,0.00,VWS V14.01,2013-04-27 20:27:00,
2013-04-27 16:30:00,54.2,27.2,30.23,SE,146,6.0,15.0,35,0.00,,---,0.00,VWS V14.01,2013-04-27 20:30:00,
2013-04-27 16:32:00,54.2,26.5,30.23,SSE,163,10.0,13.0,34,0.00,,---,0.00,VWS V14.01,2013-04-27 20:32:00,
2013-04-27 16:37:00,54.5,28.8,30.23,SSE,153,3.0,13.0,37,0.00,,---,0.00,VWS V14.01,2013-04-27 20:37:00,
2013-04-27 16:42:00,54.7,27.6,30.23,SSE,161,9.0,13.0,35,0.00,,---,0.00,VWS V14.01,2013-04-27 20:42:00,
2013-04-27 16:47:00,55.1,28.0,30.22,South,178,4.0,13.0,35,0.00,,---,0.00,VWS V14.01,2013-04-27 20:47:00,
2013-04-27 16:52:00,54.8,27.7,30.22,SE,134,2.0,13.0,35,0.00,,---,0.00,VWS V14.01,2013-04-27 20:52:00,
2013-04-27 16:57:00,55.0,27.9,30.22,South,179,6.0,13.0,35,0.00,,---,0.00,VWS V14.01,2013-04-27 20:57:00,
2013-04-27 17:00:00,55.3,28.1,30.22,SSE,159,5.0,13.0,35,0.00,,---,0.00,VWS V14.01,2013-04-27 21:00:00,
2013-04-27 17:02:00,55.3,28.1,30.22,ESE,121,4.0,9.0,35,0.00,,---,0.00,VWS V14.01,2013-04-27 21:02:00,
2013-04-27 17:07:00,55.3,28.1,30.22,ESE,107,1.0,12.0,35,0.00,,---,0.00,VWS V14.01,2013-04-27 21:07:00,
2013-04-27 17:12:00,55.1,27.3,30.22,South,176,6.0,13.0,34,0.00,,---,0.00,VWS V14.01,2013-04-27 21:12:00,
2013-04-27 17:17:00,55.1,28.0,30.22,South,169,5.0,13.0,35,0.00,,---,0.00,VWS V14.01,2013-04-27 21:17:00,
2013-04-27 17:22:00,54.7,27.6,30.22,SE,133,4.0,13.0,35,0.00,,---,0.00,VWS V14.01,2013-04-27 21:22:00,
2013-04-27 17:27:00,54.4,27.3,30.22,SSE,151,9.0,17.0,35,0.00,,---,0.00,VWS V14.01,2013-04-27 21:27:00,
2013-04-27 17:30:00,54.4,28.0,30.22,South,170,7.0,17.0,36,0.00,,---,0.00,VWS V14.01,2013-04-27 21:30:00,
2013-04-27 17:32:00,54.4,28.0,30.22,ESE,123,3.0,10.0,36,0.00,,---,0.00,VWS V14.01,2013-04-27 21:32:00,
2013-04-27 17:37:00,54.7,27.6,30.22,South,187,4.0,11.0,35,0.00,,---,0.00,VWS V14.01,2013-04-27 21:37:00,
2013-04-27 17:42:00,53.8,29.4,30.22,SE,146,11.0,16.0,39,0.00,,---,0.00,VWS V14.01,2013-04-27 21:42:00,
2013-04-27 17:47:00,53.5,30.4,30.22,SE,142,4.0,16.0,41,0.00,,---,0.00,VWS V14.01,2013-04-27 21:47:00,
2013-04-27 17:52:00,53.6,28.6,30.22,SE,146,13.0,16.0,38,0.00,,---,0.00,VWS V14.01,2013-04-27 21:52:00,
2013-04-27 17:57:00,53.6,28.0,30.22,South,188,6.0,16.0,37,0.00,,---,0.00,VWS V14.01,2013-04-27 21:57:00,
2013-04-27 18:00:00,53.6,27.3,30.22,SE,138,7.0,16.0,36,0.00,,---,0.00,VWS V14.01,2013-04-27 22:00:00,
2013-04-27 18:02:00,53.6,27.3,30.22,South,174,6.0,10.0,36,0.00,,---,0.00,VWS V14.01,2013-04-27 22:02:00,
2013-04-27 18:07:00,53.6,28.6,30.22,SE,142,5.0,15.0,38,0.00,,---,0.00,VWS V14.01,2013-04-27 22:07:00,
2013-04-27 18:12:00,53.8,28.8,30.22,SE,143,3.0,15.0,38,0.00,,---,0.00,VWS V14.01,2013-04-27 22:12:00,
2013-04-27 18:17:00,53.9,28.9,30.22,SE,141,5.0,15.0,38,0.00,,---,0.00,VWS V14.01,2013-04-27 22:17:00,
2013-04-27 18:22:00,53.8,29.4,30.22,SSE,149,4.0,15.0,39,0.00,,---,0.00,VWS V14.01,2013-04-27 22:22:00,
2013-04-27 18:27:00,53.5,31.0,30.22,SSE,150,11.0,15.0,42,0.00,,---,0.00,VWS V14.01,2013-04-27 22:27:00,
2013-04-27 18:30:00,53.2,32.4,30.22,SE,142,1.0,15.0,45,0.00,,---,0.00,VWS V14.01,2013-04-27 22:30:00,
2013-04-27 18:32:00,53.2,33.0,30.22,SE,145,4.0,10.0,46,0.00,,---,0.00,VWS V14.01,2013-04-27 22:32:00,
2013-04-27 18:37:00,52.9,33.8,30.22,South,190,6.0,13.0,48,0.00,,---,0.00,VWS V14.01,2013-04-27 22:37:00,
2013-04-27 18:42:00,52.6,34.5,30.22,SSE,161,3.0,13.0,50,0.00,,---,0.00,VWS V14.01,2013-04-27 22:42:00,
2013-04-27 18:47:00,52.3,34.7,30.22,South,171,6.0,13.0,51,0.00,,---,0.00,VWS V14.01,2013-04-27 22:47:00,
2013-04-27 18:52:00,52.0,35.4,30.22,SSE,148,6.0,13.0,53,0.00,,---,0.00,VWS V14.01,2013-04-27 22:52:00,
2013-04-27 18:57:00,51.9,35.8,30.22,SSE,151,8.0,13.0,54,0.00,,---,0.00,VWS V14.01,2013-04-27 22:57:00,
2013-04-27 19:00:00,51.9,35.8,30.22,SSE,154,9.0,14.0,54,0.00,,---,0.00,VWS V14.01,2013-04-27 23:00:00,
2013-04-27 19:02:00,51.9,35.3,30.22,SE,138,6.0,14.0,53,0.00,,---,0.00,VWS V14.01,2013-04-27 23:02:00,
2013-04-27 19:07:00,52.0,36.8,30.22,SSE,161,9.0,14.0,56,0.00,,---,0.00,VWS V14.01,2013-04-27 23:07:00,
2013-04-27 19:12:00,52.0,35.4,30.22,SSE,161,6.0,14.0,53,0.00,,---,0.00,VWS V14.01,2013-04-27 23:12:00,
2013-04-27 19:17:00,51.9,35.8,30.22,SE,127,6.0,14.0,54,0.00,,---,0.00,VWS V14.01,2013-04-27 23:17:00,
2013-04-27 19:22:00,51.7,35.6,30.22,SSE,157,5.0,16.0,54,0.00,,---,0.00,VWS V14.01,2013-04-27 23:22:00,
2013-04-27 19:27:00,51.9,35.3,30.22,SE,136,9.0,16.0,53,0.00,,---,0.00,VWS V14.01,2013-04-27 23:27:00,
2013-04-27 19:30:00,51.7,36.1,30.21,South,176,9.0,16.0,55,0.00,,---,0.00,VWS V14.01,2013-04-27 23:30:00,
2013-04-27 19:32:00,51.7,36.1,30.21,South,169,5.0,10.0,55,0.00,,---,0.00,VWS V14.01,2013-04-27 23:32:00,
2013-04-27 19:37:00,51.4,36.7,30.21,SSE,148,11.0,13.0,57,0.00,,---,0.00,VWS V14.01,2013-04-27 23:37:00,
2013-04-27 19:42:00,51.1,37.3,30.21,SSE,148,11.0,14.0,59,0.00,,---,0.00,VWS V14.01,2013-04-27 23:42:00,
2013-04-27 19:46:00,51.1,36.8,30.21,SE,134,3.0,14.0,58,0.00,,---,0.00,VWS V14.01,2013-04-27 23:46:00,
2013-04-27 19:51:00,51.0,37.2,30.21,SE,136,3.0,14.0,59,0.00,,---,0.00,VWS V14.01,2013-04-27 23:51:00,
2013-04-27 19:56:00,50.8,37.0,30.21,SE,139,4.0,14.0,59,0.00,,---,0.00,VWS V14.01,2013-04-27 23:56:00,
2013-04-27 20:00:00,50.8,37.0,30.21,SE,130,4.0,14.0,59,0.00,,---,0.00,VWS V14.01,2013-04-28 00:00:00,
2013-04-27 20:01:00,50.8,37.0,30.21,SE,127,10.0,10.0,59,0.00,,---,0.00,VWS V14.01,2013-04-28 00:01:00,
2013-04-27 20:06:00,50.8,37.4,30.21,SSE,162,4.0,13.0,60,0.00,,---,0.00,VWS V14.01,2013-04-28 00:06:00,
2013-04-27 20:11:00,50.7,37.8,30.21,SE,129,3.0,16.0,61,0.00,,---,0.00,VWS V14.01,2013-04-28 00:11:00,
2013-04-27 20:16:00,50.4,38.3,30.21,SSE,148,5.0,16.0,63,0.00,,---,0.00,VWS V14.01,2013-04-28 00:16:00,
2013-04-27 20:21:00,50.1,38.8,30.21,SSE,160,3.0,16.0,65,0.00,,---,0.00,VWS V14.01,2013-04-28 00:21:00,
2013-04-27 20:26:00,50.1,39.2,30.21,SE,146,5.0,16.0,66,0.00,,---,0.00,VWS V14.01,2013-04-28 00:26:00,
2013-04-27 20:30:00,49.9,39.4,30.22,SE,142,6.0,16.0,67,0.00,,---,0.00,VWS V14.01,2013-04-28 00:30:00,
2013-04-27 20:31:00,49.9,39.4,30.22,SE,146,7.0,10.0,67,0.00,,---,0.00,VWS V14.01,2013-04-28 00:31:00,
2013-04-27 20:36:00,49.6,39.9,30.22,SSE,165,5.0,11.0,69,0.00,,---,0.00,VWS V14.01,2013-04-28 00:36:00,
2013-04-27 20:41:00,49.5,40.1,30.22,SSE,159,5.0,11.0,70,0.00,,---,0.00,VWS V14.01,2013-04-28 00:41:00,
2013-04-27 20:46:00,49.5,40.1,30.22,SSE,154,4.0,11.0,70,0.00,,---,0.00,VWS V14.01,2013-04-28 00:46:00,
2013-04-27 20:51:00,49.6,40.2,30.22,SSE,149,4.0,11.0,70,0.00,,---,0.00,VWS V14.01,2013-04-28 00:51:00,
2013-04-27 20:56:00,49.6,40.2,30.22,SSE,154,3.0,11.0,70,0.00,,---,0.00,VWS V14.01,2013-04-28 00:56:00,
2013-04-27 21:00:00,49.6,40.2,30.23,South,181,3.0,11.0,70,0.00,,---,0.00,VWS V14.01,2013-04-28 01:00:00,
2013-04-27 21:01:00,49.6,40.6,30.23,SE,133,3.0,6.0,71,0.00,,---,0.00,VWS V14.01,2013-04-28 01:01:00,
2013-04-27 21:06:00,49.6,40.6,30.23,SSE,165,3.0,6.0,71,0.00,,---,0.00,VWS V14.01,2013-04-28 01:06:00,
2013-04-27 21:11:00,49.6,41.0,30.23,SSE,161,2.0,6.0,72,0.00,,---,0.00,VWS V14.01,2013-04-28 01:11:00,
2013-04-27 21:16:00,49.6,41.0,30.23,South,191,5.0,6.0,72,0.00,,---,0.00,VWS V14.01,2013-04-28 01:16:00,
2013-04-27 21:21:00,49.6,40.2,30.23,South,172,0.0,6.0,70,0.00,,---,0.00,VWS V14.01,2013-04-28 01:21:00,
2013-04-27 21:26:00,49.9,39.8,30.23,SSE,150,2.0,6.0,68,0.00,,---,0.00,VWS V14.01,2013-04-28 01:26:00,
2013-04-27 21:30:00,50.1,39.2,30.23,SSE,161,3.0,6.0,66,0.00,,---,0.00,VWS V14.01,2013-04-28 01:30:00,
2013-04-27 21:31:00,50.2,39.3,30.23,South,173,1.0,3.0,66,0.00,,---,0.00,VWS V14.01,2013-04-28 01:31:00,
2013-04-27 21:36:00,50.4,39.1,30.23,South,187,2.0,5.0,65,0.00,,---,0.00,VWS V14.01,2013-04-28 01:36:00,
2013-04-27 21:41:00,50.5,38.8,30.23,South,188,0.0,5.0,64,0.00,,---,0.00,VWS V14.01,2013-04-28 01:41:00,
2013-04-27 21:46:00,50.4,38.3,30.23,SSW,212,0.0,5.0,63,0.00,,---,0.00,VWS V14.01,2013-04-28 01:46:00,
2013-04-27 21:51:00,50.5,38.0,30.23,SW,225,0.0,5.0,62,0.00,,---,0.00,VWS V14.01,2013-04-28 01:51:00,
2013-04-27 21:56:00,50.5,37.2,30.23,South,181,0.0,5.0,60,0.00,,---,0.00,VWS V14.01,2013-04-28 01:56:00,
2013-04-27 22:00:00,50.5,36.7,30.24,SW,216,0.0,6.0,59,0.00,,---,0.00,VWS V14.01,2013-04-28 02:00:00,
2013-04-27 22:01:00,50.7,37.3,30.24,SW,225,3.0,5.0,60,0.00,,---,0.00,VWS V14.01,2013-04-28 02:01:00,
2013-04-27 22:06:00,50.8,35.7,30.24,SW,233,1.0,5.0,56,0.00,,---,0.00,VWS V14.01,2013-04-28 02:06:00,
2013-04-27 22:11:00,51.0,35.4,30.24,SW,222,0.0,7.0,55,0.00,,---,0.00,VWS V14.01,2013-04-28 02:11:00,
2013-04-27 22:16:00,51.3,35.2,30.24,WNW,294,0.0,9.0,54,0.00,,---,0.00,VWS V14.01,2013-04-28 02:16:00,
2013-04-27 22:21:00,51.4,34.9,30.24,SW,227,5.0,9.0,53,0.00,,---,0.00,VWS V14.01,2013-04-28 02:21:00,
2013-04-27 22:26:00,51.4,34.9,30.24,SSW,211,3.0,9.0,53,0.00,,---,0.00,VWS V14.01,2013-04-28 02:26:00,
2013-04-27 22:30:00,51.4,35.3,30.24,WSW,249,1.0,9.0,54,0.00,,---,0.00,VWS V14.01,2013-04-28 02:30:00,
2013-04-27 22:31:00,51.4,35.3,30.24,SSW,213,7.0,9.0,54,0.00,,---,0.00,VWS V14.01,2013-04-28 02:31:00,
2013-04-27 22:36:00,51.4,35.8,30.24,SW,214,3.0,9.0,55,0.00,,---,0.00,VWS V14.01,2013-04-28 02:36:00,
2013-04-27 22:41:00,51.1,36.0,30.24,SW,225,2.0,9.0,56,0.00,,---,0.00,VWS V14.01,2013-04-28 02:41:00,
2013-04-27 22:46:00,51.0,35.9,30.24,SSW,202,0.0,9.0,56,0.00,,---,0.00,VWS V14.01,2013-04-28 02:46:00,
2013-04-27 22:51:00,50.8,35.7,30.24,WSW,238,0.0,9.0,56,0.00,,---,0.00,VWS V14.01,2013-04-28 02:51:00,
2013-04-27 22:56:00,50.7,36.0,30.24,WSW,238,2.0,9.0,57,0.00,,---,0.00,VWS V14.01,2013-04-28 02:56:00,
2013-04-27 23:00:00,50.5,35.8,30.24,WSW,239,0.0,9.0,57,0.00,,---,0.00,VWS V14.01,2013-04-28 03:00:00,
2013-04-27 23:01:00,50.5,35.8,30.24,WSW,239,0.0,1.0,57,0.00,,---,0.00,VWS V14.01,2013-04-28 03:01:00,
2013-04-27 23:06:00,50.5,35.8,30.24,SW,223,3.0,6.0,57,0.00,,---,0.00,VWS V14.01,2013-04-28 03:06:00,
2013-04-27 23:11:00,50.5,36.3,30.24,WSW,246,0.0,6.0,58,0.00,,---,0.00,VWS V14.01,2013-04-28 03:11:00,
2013-04-27 23:16:00,50.4,36.2,30.24,SW,216,0.0,6.0,58,0.00,,---,0.00,VWS V14.01,2013-04-28 03:16:00,
2013-04-27 23:21:00,50.2,36.4,30.24,SSW,205,0.0,6.0,59,0.00,,---,0.00,VWS V14.01,2013-04-28 03:21:00,
2013-04-27 23:26:00,50.1,36.3,30.24,SW,221,0.0,6.0,59,0.00,,---,0.00,VWS V14.01,2013-04-28 03:26:00,
2013-04-27 23:30:00,50.1,36.3,30.24,SW,219,0.0,6.0,59,0.00,,---,0.00,VWS V14.01,2013-04-28 03:30:00,
2013-04-27 23:31:00,50.1,36.3,30.24,SW,219,0.0,2.0,59,0.00,,---,0.00,VWS V14.01,2013-04-28 03:31:00,
2013-04-27 23:36:00,49.9,36.2,30.24,SW,219,1.0,2.0,59,0.00,,---,0.00,VWS V14.01,2013-04-28 03:36:00,
2013-04-27 23:41:00,49.8,36.5,30.24,SW,219,0.0,3.0,60,0.00,,---,0.00,VWS V14.01,2013-04-28 03:41:00,
2013-04-27 23:46:00,49.6,36.3,30.24,SW,227,0.0,3.0,60,0.00,,---,0.00,VWS V14.01,2013-04-28 03:46:00,
2013-04-27 23:51:00,49.6,36.3,30.24,SW,227,1.0,3.0,60,0.00,,---,0.00,VWS V14.01,2013-04-28 03:51:00,
2013-04-27 23:56:00,49.8,36.9,30.24,SW,227,2.0,4.0,61,0.00,,---,0.00,VWS V14.01,2013-04-28 03:56:00,